Hovedside
METAR-TAF:

METAR-TAF

Lufthavner :

Makassar, South Sulawesi, Indonesia

breddegrad: 05-04S, lengdegrad: 119-33E, høyde over havet: 14 m

Gjeldene værobservasjon

Denne rapporten ble laget for 45 minutter siden, klokken 03:00 UTC
Vind 6 kt fra Øst, skiftende mellom Øst-nordøst og Sør-sørøst
Temperatur 31°C
Luftfuktighet 63%
Trykk 1010 hPa
Sikt 10 km eller mer
Få skyer i en høyde av 1900 ft

METAR: WAAA 220300Z 10006KT 060V150 9999 FEW019 31/23 Q1010 NOSIG

Tid: 10:45 (03:45 UTC)

Varsel

Denne rapporten ble laget for 4 timer og 45 minutter siden, klokken 23:00 UTC
Varsel gyldig fra 22. klokken 00 UTC til 23. klokken 06 UTC
Vind 4 kt fra Øst-sørøst
Sikt 10 km eller mer
Spredte skyer i en høyde av 1800 ft
Blir
fra 22. klokken 02 UTC til 22. klokken 04 UTC
Vind 10 kt fra Vest

TAF: WAAA 212300Z 2200/2306 12004KT 9999 SCT018 BECMG 2202/2204 28010KT

Værobservasjoner og værvarsel for over 4000 flyplasser (METAR- og TAF-rapporter).

Tilgjengelige stasjoner er representert av de røde og gule prikkene på kartet.

Hold musepekeren over prikken for å se navnet på stasjonen.

Klikk så for å se værobservasjoner og -varsler.

For å forandre kartet kan du klikke på den grønne knappen med svart kryss for å zoome inn, på den grønne knappen med strek for å zoome ut, eller på de grønne pilene for å se tilstøtende kart.


METAR-TAF: